sensor_id;sensor_type;location;lat;lon;timestamp;temperature;humidity
19813;DHT22;10066;48.108;11.448;2023-08-20T00:01:10;21.00;99.90
19813;DHT22;10066;48.108;11.448;2023-08-20T00:03:39;20.90;99.90
19813;DHT22;10066;48.108;11.448;2023-08-20T00:06:10;20.90;99.90
19813;DHT22;10066;48.108;11.448;2023-08-20T00:08:37;20.80;99.90
19813;DHT22;10066;48.108;11.448;2023-08-20T00:11:04;20.80;99.90
19813;DHT22;10066;48.108;11.448;2023-08-20T00:13:31;20.70;99.90
19813;DHT22;10066;48.108;11.448;2023-08-20T00:15:58;20.60;99.90
19813;DHT22;10066;48.108;11.448;2023-08-20T00:18:26;20.60;99.90
19813;DHT22;10066;48.108;11.448;2023-08-20T00:20:54;20.50;99.90
19813;DHT22;10066;48.108;11.448;2023-08-20T00:23:23;20.40;99.90
19813;DHT22;10066;48.108;11.448;2023-08-20T00:25:51;20.40;99.90
19813;DHT22;10066;48.108;11.448;2023-08-20T00:28:19;20.30;99.90
19813;DHT22;10066;48.108;11.448;2023-08-20T00:30:46;20.30;99.90
19813;DHT22;10066;48.108;11.448;2023-08-20T00:33:14;20.20;99.90
19813;DHT22;10066;48.108;11.448;2023-08-20T00:35:41;20.10;99.90
19813;DHT22;10066;48.108;11.448;2023-08-20T00:38:08;20.10;99.90
19813;DHT22;10066;48.108;11.448;2023-08-20T00:40:36;20.10;99.90
19813;DHT22;10066;48.108;11.448;2023-08-20T00:43:06;20.00;99.90
19813;DHT22;10066;48.108;11.448;2023-08-20T00:45:34;20.00;99.90
19813;DHT22;10066;48.108;11.448;2023-08-20T00:48:01;19.90;99.90
19813;DHT22;10066;48.108;11.448;2023-08-20T00:50:28;19.90;99.90
19813;DHT22;10066;48.108;11.448;2023-08-20T00:52:56;19.90;99.90
19813;DHT22;10066;48.108;11.448;2023-08-20T00:55:24;19.80;99.90
19813;DHT22;10066;48.108;11.448;2023-08-20T00:57:53;19.80;99.90
19813;DHT22;10066;48.108;11.448;2023-08-20T01:00:21;19.80;99.90
19813;DHT22;10066;48.108;11.448;2023-08-20T01:02:51;19.70;99.90
19813;DHT22;10066;48.108;11.448;2023-08-20T01:05:18;19.70;99.90
19813;DHT22;10066;48.108;11.448;2023-08-20T01:08:10;19.60;99.90
19813;DHT22;10066;48.108;11.448;2023-08-20T01:10:46;19.60;99.90
19813;DHT22;10066;48.108;11.448;2023-08-20T01:13:18;19.60;99.90
19813;DHT22;10066;48.108;11.448;2023-08-20T01:15:45;19.60;99.90
19813;DHT22;10066;48.108;11.448;2023-08-20T01:18:12;19.60;99.90
19813;DHT22;10066;48.108;11.448;2023-08-20T01:20:44;19.60;99.90
19813;DHT22;10066;48.108;11.448;2023-08-20T01:26:25;19.50;99.90
19813;DHT22;10066;48.108;11.448;2023-08-20T01:28:58;19.50;99.90
19813;DHT22;10066;48.108;11.448;2023-08-20T01:31:26;19.50;99.90
19813;DHT22;10066;48.108;11.448;2023-08-20T01:33:53;19.50;99.90
19813;DHT22;10066;48.108;11.448;2023-08-20T01:36:22;19.40;99.90
19813;DHT22;10066;48.108;11.448;2023-08-20T01:38:48;19.40;99.90
19813;DHT22;10066;48.108;11.448;2023-08-20T01:41:16;19.40;99.90
19813;DHT22;10066;48.108;11.448;2023-08-20T01:43:43;19.30;99.90
19813;DHT22;10066;48.108;11.448;2023-08-20T01:46:12;19.30;99.90
19813;DHT22;10066;48.108;11.448;2023-08-20T01:48:40;19.30;99.90
19813;DHT22;10066;48.108;11.448;2023-08-20T01:51:09;19.20;99.90
19813;DHT22;10066;48.108;11.448;2023-08-20T01:53:36;19.20;99.90
19813;DHT22;10066;48.108;11.448;2023-08-20T01:56:03;19.10;99.90
19813;DHT22;10066;48.108;11.448;2023-08-20T01:58:30;19.10;99.90
19813;DHT22;10066;48.108;11.448;2023-08-20T02:00:58;19.10;99.90
19813;DHT22;10066;48.108;11.448;2023-08-20T02:03:26;19.00;99.90
19813;DHT22;10066;48.108;11.448;2023-08-20T02:05:53;19.00;99.90
19813;DHT22;10066;48.108;11.448;2023-08-20T02:08:20;18.90;99.90
19813;DHT22;10066;48.108;11.448;2023-08-20T02:10:48;18.90;99.90
19813;DHT22;10066;48.108;11.448;2023-08-20T02:13:15;18.90;99.90
19813;DHT22;10066;48.108;11.448;2023-08-20T02:15:42;18.90;99.90
19813;DHT22;10066;48.108;11.448;2023-08-20T02:18:09;18.80;99.90
19813;DHT22;10066;48.108;11.448;2023-08-20T02:20:37;18.80;99.90
19813;DHT22;10066;48.108;11.448;2023-08-20T02:23:04;18.80;99.90
19813;DHT22;10066;48.108;11.448;2023-08-20T02:25:34;18.70;99.90
19813;DHT22;10066;48.108;11.448;2023-08-20T02:28:01;18.70;99.90
19813;DHT22;10066;48.108;11.448;2023-08-20T02:30:28;18.70;99.90
19813;DHT22;10066;48.108;11.448;2023-08-20T02:32:55;18.60;99.90
19813;DHT22;10066;48.108;11.448;2023-08-20T02:35:22;18.60;99.90
19813;DHT22;10066;48.108;11.448;2023-08-20T02:37:50;18.60;99.90
19813;DHT22;10066;48.108;11.448;2023-08-20T02:40:17;18.60;99.90
19813;DHT22;10066;48.108;11.448;2023-08-20T02:42:44;18.50;99.90
19813;DHT22;10066;48.108;11.448;2023-08-20T02:45:10;18.50;99.90
19813;DHT22;10066;48.108;11.448;2023-08-20T02:47:37;18.50;99.90
19813;DHT22;10066;48.108;11.448;2023-08-20T02:50:05;18.50;99.90
19813;DHT22;10066;48.108;11.448;2023-08-20T02:52:32;18.50;99.90
19813;DHT22;10066;48.108;11.448;2023-08-20T02:55:00;18.50;99.90
19813;DHT22;10066;48.108;11.448;2023-08-20T02:57:29;18.50;99.90
19813;DHT22;10066;48.108;11.448;2023-08-20T02:59:56;18.40;99.90
19813;DHT22;10066;48.108;11.448;2023-08-20T03:02:23;18.40;99.90
19813;DHT22;10066;48.108;11.448;2023-08-20T03:04:50;18.40;99.90
19813;DHT22;10066;48.108;11.448;2023-08-20T03:07:18;18.40;99.90
19813;DHT22;10066;48.108;11.448;2023-08-20T03:09:45;18.30;99.90
19813;DHT22;10066;48.108;11.448;2023-08-20T03:12:13;18.30;99.90
19813;DHT22;10066;48.108;11.448;2023-08-20T03:14:40;18.30;99.90
19813;DHT22;10066;48.108;11.448;2023-08-20T03:17:07;18.30;99.90
19813;DHT22;10066;48.108;11.448;2023-08-20T03:19:34;18.20;99.90
19813;DHT22;10066;48.108;11.448;2023-08-20T03:22:01;18.20;99.90
19813;DHT22;10066;48.108;11.448;2023-08-20T03:24:28;18.20;99.90
19813;DHT22;10066;48.108;11.448;2023-08-20T03:26:55;18.20;99.90
19813;DHT22;10066;48.108;11.448;2023-08-20T03:29:24;18.20;99.90
19813;DHT22;10066;48.108;11.448;2023-08-20T03:31:51;18.20;99.90
19813;DHT22;10066;48.108;11.448;2023-08-20T03:34:18;18.20;99.90
19813;DHT22;10066;48.108;11.448;2023-08-20T03:36:45;18.10;99.90
19813;DHT22;10066;48.108;11.448;2023-08-20T03:39:11;18.10;99.90
19813;DHT22;10066;48.108;11.448;2023-08-20T03:41:39;18.10;99.90
19813;DHT22;10066;48.108;11.448;2023-08-20T03:44:06;18.10;99.90
19813;DHT22;10066;48.108;11.448;2023-08-20T03:46:34;18.10;99.90
19813;DHT22;10066;48.108;11.448;2023-08-20T03:49:01;18.10;99.90
19813;DHT22;10066;48.108;11.448;2023-08-20T03:51:28;18.10;99.90
19813;DHT22;10066;48.108;11.448;2023-08-20T03:53:55;18.10;99.90
19813;DHT22;10066;48.108;11.448;2023-08-20T03:56:22;18.10;99.90
19813;DHT22;10066;48.108;11.448;2023-08-20T03:58:49;18.20;99.90
19813;DHT22;10066;48.108;11.448;2023-08-20T04:01:18;18.20;99.90
19813;DHT22;10066;48.108;11.448;2023-08-20T04:03:47;18.20;99.90
19813;DHT22;10066;48.108;11.448;2023-08-20T04:06:14;18.20;99.90
19813;DHT22;10066;48.108;11.448;2023-08-20T04:08:41;18.30;99.90
19813;DHT22;10066;48.108;11.448;2023-08-20T04:11:10;18.30;99.90
19813;DHT22;10066;48.108;11.448;2023-08-20T04:13:37;18.30;99.90
19813;DHT22;10066;48.108;11.448;2023-08-20T04:16:05;18.30;99.90
19813;DHT22;10066;48.108;11.448;2023-08-20T04:18:32;18.40;99.90
19813;DHT22;10066;48.108;11.448;2023-08-20T04:21:01;18.40;99.90
19813;DHT22;10066;48.108;11.448;2023-08-20T04:23:28;18.40;99.90
19813;DHT22;10066;48.108;11.448;2023-08-20T04:25:55;18.40;99.90
19813;DHT22;10066;48.108;11.448;2023-08-20T04:28:22;18.40;99.90
19813;DHT22;10066;48.108;11.448;2023-08-20T04:30:51;18.40;99.90
19813;DHT22;10066;48.108;11.448;2023-08-20T04:33:19;18.40;99.90
19813;DHT22;10066;48.108;11.448;2023-08-20T04:35:48;18.40;99.90
19813;DHT22;10066;48.108;11.448;2023-08-20T04:38:17;18.40;99.90
19813;DHT22;10066;48.108;11.448;2023-08-20T04:40:46;18.40;99.90
19813;DHT22;10066;48.108;11.448;2023-08-20T04:43:13;18.40;99.90
19813;DHT22;10066;48.108;11.448;2023-08-20T04:45:40;18.40;99.90
19813;DHT22;10066;48.108;11.448;2023-08-20T04:48:07;18.40;99.90
19813;DHT22;10066;48.108;11.448;2023-08-20T04:50:35;18.40;99.90
19813;DHT22;10066;48.108;11.448;2023-08-20T04:53:02;18.40;99.90
19813;DHT22;10066;48.108;11.448;2023-08-20T04:55:30;18.40;99.90
19813;DHT22;10066;48.108;11.448;2023-08-20T04:57:57;18.40;99.90
19813;DHT22;10066;48.108;11.448;2023-08-20T05:00:24;18.40;99.90
19813;DHT22;10066;48.108;11.448;2023-08-20T05:02:54;18.40;99.90
19813;DHT22;10066;48.108;11.448;2023-08-20T05:05:22;18.40;99.90
19813;DHT22;10066;48.108;11.448;2023-08-20T05:07:49;18.40;99.90
19813;DHT22;10066;48.108;11.448;2023-08-20T05:10:16;18.50;99.90
19813;DHT22;10066;48.108;11.448;2023-08-20T05:12:45;18.50;99.90
19813;DHT22;10066;48.108;11.448;2023-08-20T05:15:12;18.50;99.90
19813;DHT22;10066;48.108;11.448;2023-08-20T05:17:40;18.50;99.90
19813;DHT22;10066;48.108;11.448;2023-08-20T05:20:07;18.50;99.90
19813;DHT22;10066;48.108;11.448;2023-08-20T05:22:36;18.50;99.90
19813;DHT22;10066;48.108;11.448;2023-08-20T05:25:03;18.50;99.90
19813;DHT22;10066;48.108;11.448;2023-08-20T05:27:30;18.50;99.90
19813;DHT22;10066;48.108;11.448;2023-08-20T05:30:02;18.50;99.90
19813;DHT22;10066;48.108;11.448;2023-08-20T05:32:29;18.60;99.90
19813;DHT22;10066;48.108;11.448;2023-08-20T05:34:56;18.60;99.90
19813;DHT22;10066;48.108;11.448;2023-08-20T05:37:23;18.60;99.90
19813;DHT22;10066;48.108;11.448;2023-08-20T05:39:50;18.60;99.90
19813;DHT22;10066;48.108;11.448;2023-08-20T05:42:17;18.70;99.90
19813;DHT22;10066;48.108;11.448;2023-08-20T05:44:44;18.80;99.90
19813;DHT22;10066;48.108;11.448;2023-08-20T05:47:12;19.30;99.90
19813;DHT22;10066;48.108;11.448;2023-08-20T05:49:39;20.80;99.90
19813;DHT22;10066;48.108;11.448;2023-08-20T05:52:06;22.10;99.90
19813;DHT22;10066;48.108;11.448;2023-08-20T05:54:33;23.30;99.90
19813;DHT22;10066;48.108;11.448;2023-08-20T05:57:00;24.40;99.90
19813;DHT22;10066;48.108;11.448;2023-08-20T05:59:27;25.40;99.90
19813;DHT22;10066;48.108;11.448;2023-08-20T06:01:54;26.30;99.90
19813;DHT22;10066;48.108;11.448;2023-08-20T06:04:22;27.00;99.90
19813;DHT22;10066;48.108;11.448;2023-08-20T06:09:17;28.40;99.90
19813;DHT22;10066;48.108;11.448;2023-08-20T06:11:44;29.00;99.30
19813;DHT22;10066;48.108;11.448;2023-08-20T06:14:11;29.50;97.70
19813;DHT22;10066;48.108;11.448;2023-08-20T06:16:38;30.00;96.20
19813;DHT22;10066;48.108;11.448;2023-08-20T06:19:05;30.40;95.00
19813;DHT22;10066;48.108;11.448;2023-08-20T06:21:33;30.80;93.90
19813;DHT22;10066;48.108;11.448;2023-08-20T06:24:01;31.10;93.00
19813;DHT22;10066;48.108;11.448;2023-08-20T06:26:28;31.20;92.10
19813;DHT22;10066;48.108;11.448;2023-08-20T06:28:55;31.00;91.90
19813;DHT22;10066;48.108;11.448;2023-08-20T06:31:27;30.50;91.80
19813;DHT22;10066;48.108;11.448;2023-08-20T06:33:54;29.50;92.90
19813;DHT22;10066;48.108;11.448;2023-08-20T06:36:22;28.70;93.80
19813;DHT22;10066;48.108;11.448;2023-08-20T06:38:50;27.90;94.40
19813;DHT22;10066;48.108;11.448;2023-08-20T06:41:18;27.30;95.30
19813;DHT22;10066;48.108;11.448;2023-08-20T06:43:45;26.80;96.20
19813;DHT22;10066;48.108;11.448;2023-08-20T06:46:12;26.40;96.80
19813;DHT22;10066;48.108;11.448;2023-08-20T06:48:39;26.00;97.60
19813;DHT22;10066;48.108;11.448;2023-08-20T06:51:11;25.80;98.20
19813;DHT22;10066;48.108;11.448;2023-08-20T06:53:38;25.60;98.50
19813;DHT22;10066;48.108;11.448;2023-08-20T06:56:07;25.50;98.90
19813;DHT22;10066;48.108;11.448;2023-08-20T06:58:35;25.30;99.30
19813;DHT22;10066;48.108;11.448;2023-08-20T07:01:03;25.30;99.90
19813;DHT22;10066;48.108;11.448;2023-08-20T07:03:34;25.20;99.90
19813;DHT22;10066;48.108;11.448;2023-08-20T07:06:01;25.20;99.90
19813;DHT22;10066;48.108;11.448;2023-08-20T07:08:28;25.10;99.80
19813;DHT22;10066;48.108;11.448;2023-08-20T07:10:55;25.10;99.30
19813;DHT22;10066;48.108;11.448;2023-08-20T07:13:24;25.10;99.10
19813;DHT22;10066;48.108;11.448;2023-08-20T07:15:51;25.10;99.30
19813;DHT22;10066;48.108;11.448;2023-08-20T07:18:18;25.20;99.00
19813;DHT22;10066;48.108;11.448;2023-08-20T07:20:45;25.20;98.80
19813;DHT22;10066;48.108;11.448;2023-08-20T07:23:12;25.20;98.80
19813;DHT22;10066;48.108;11.448;2023-08-20T07:25:41;25.30;98.90
19813;DHT22;10066;48.108;11.448;2023-08-20T07:28:08;25.30;99.60
19813;DHT22;10066;48.108;11.448;2023-08-20T07:30:36;25.40;99.80
19813;DHT22;10066;48.108;11.448;2023-08-20T07:33:05;25.50;99.40
19813;DHT22;10066;48.108;11.448;2023-08-20T07:35:32;25.60;99.00
19813;DHT22;10066;48.108;11.448;2023-08-20T07:38:01;25.70;98.90
19813;DHT22;10066;48.108;11.448;2023-08-20T07:40:28;25.70;98.20
19813;DHT22;10066;48.108;11.448;2023-08-20T07:42:55;25.80;97.30
19813;DHT22;10066;48.108;11.448;2023-08-20T07:45:22;25.80;97.60
19813;DHT22;10066;48.108;11.448;2023-08-20T07:47:51;26.00;98.10
19813;DHT22;10066;48.108;11.448;2023-08-20T07:50:18;26.00;96.90
19813;DHT22;10066;48.108;11.448;2023-08-20T07:52:45;26.10;96.20
19813;DHT22;10066;48.108;11.448;2023-08-20T07:55:12;26.10;95.80
19813;DHT22;10066;48.108;11.448;2023-08-20T07:57:39;26.30;95.60
19813;DHT22;10066;48.108;11.448;2023-08-20T08:00:07;26.40;95.00
19813;DHT22;10066;48.108;11.448;2023-08-20T08:02:34;26.40;95.10
19813;DHT22;10066;48.108;11.448;2023-08-20T08:05:03;26.50;94.50
19813;DHT22;10066;48.108;11.448;2023-08-20T08:07:31;26.60;94.40
19813;DHT22;10066;48.108;11.448;2023-08-20T08:09:57;26.70;93.70
19813;DHT22;10066;48.108;11.448;2023-08-20T08:12:24;26.80;93.30
19813;DHT22;10066;48.108;11.448;2023-08-20T08:14:52;26.90;93.50
19813;DHT22;10066;48.108;11.448;2023-08-20T08:17:19;27.00;93.20
19813;DHT22;10066;48.108;11.448;2023-08-20T08:19:46;27.10;92.70
19813;DHT22;10066;48.108;11.448;2023-08-20T08:22:14;27.20;92.60
19813;DHT22;10066;48.108;11.448;2023-08-20T08:24:41;27.30;92.00
19813;DHT22;10066;48.108;11.448;2023-08-20T08:27:09;27.40;91.70
19813;DHT22;10066;48.108;11.448;2023-08-20T08:29:36;27.50;91.90
19813;DHT22;10066;48.108;11.448;2023-08-20T08:32:03;27.60;91.40
19813;DHT22;10066;48.108;11.448;2023-08-20T08:34:30;27.70;91.00
19813;DHT22;10066;48.108;11.448;2023-08-20T08:36:57;27.70;90.80
19813;DHT22;10066;48.108;11.448;2023-08-20T08:39:25;27.80;90.60
19813;DHT22;10066;48.108;11.448;2023-08-20T08:41:55;27.90;91.00
19813;DHT22;10066;48.108;11.448;2023-08-20T08:44:28;27.90;90.60
19813;DHT22;10066;48.108;11.448;2023-08-20T08:46:55;28.00;90.00
19813;DHT22;10066;48.108;11.448;2023-08-20T08:49:22;28.00;89.80
19813;DHT22;10066;48.108;11.448;2023-08-20T08:51:49;28.00;90.40
19813;DHT22;10066;48.108;11.448;2023-08-20T08:54:17;28.20;90.50
19813;DHT22;10066;48.108;11.448;2023-08-20T08:56:46;28.20;90.90
19813;DHT22;10066;48.108;11.448;2023-08-20T08:59:13;28.30;90.70
19813;DHT22;10066;48.108;11.448;2023-08-20T09:01:41;28.40;90.40
19813;DHT22;10066;48.108;11.448;2023-08-20T09:04:08;28.50;90.00
19813;DHT22;10066;48.108;11.448;2023-08-20T09:06:45;28.70;90.30
19813;DHT22;10066;48.108;11.448;2023-08-20T09:09:12;28.80;89.30
19813;DHT22;10066;48.108;11.448;2023-08-20T09:11:39;28.80;89.50
19813;DHT22;10066;48.108;11.448;2023-08-20T09:14:08;28.90;88.50
19813;DHT22;10066;48.108;11.448;2023-08-20T09:16:35;29.00;88.30
19813;DHT22;10066;48.108;11.448;2023-08-20T09:19:02;29.10;88.30
19813;DHT22;10066;48.108;11.448;2023-08-20T09:21:30;29.20;87.90
19813;DHT22;10066;48.108;11.448;2023-08-20T09:23:57;29.30;86.10
19813;DHT22;10066;48.108;11.448;2023-08-20T09:26:25;29.50;86.00
19813;DHT22;10066;48.108;11.448;2023-08-20T09:28:55;29.50;84.50
19813;DHT22;10066;48.108;11.448;2023-08-20T09:31:37;29.60;83.40
19813;DHT22;10066;48.108;11.448;2023-08-20T09:34:05;29.70;81.80
19813;DHT22;10066;48.108;11.448;2023-08-20T09:36:34;29.80;82.20
19813;DHT22;10066;48.108;11.448;2023-08-20T09:39:02;29.90;79.90
19813;DHT22;10066;48.108;11.448;2023-08-20T09:41:29;30.00;79.70
19813;DHT22;10066;48.108;11.448;2023-08-20T09:43:57;30.10;79.90
19813;DHT22;10066;48.108;11.448;2023-08-20T09:46:24;30.10;78.00
19813;DHT22;10066;48.108;11.448;2023-08-20T09:48:56;30.20;77.50
19813;DHT22;10066;48.108;11.448;2023-08-20T09:51:25;30.20;77.20
19813;DHT22;10066;48.108;11.448;2023-08-20T09:53:58;30.40;77.00
19813;DHT22;10066;48.108;11.448;2023-08-20T09:56:28;30.40;76.50
19813;DHT22;10066;48.108;11.448;2023-08-20T09:58:57;30.50;75.40
19813;DHT22;10066;48.108;11.448;2023-08-20T10:01:25;30.50;75.30
19813;DHT22;10066;48.108;11.448;2023-08-20T10:03:54;30.50;76.00
19813;DHT22;10066;48.108;11.448;2023-08-20T10:06:21;30.60;75.50
19813;DHT22;10066;48.108;11.448;2023-08-20T10:08:48;30.60;74.60
19813;DHT22;10066;48.108;11.448;2023-08-20T10:11:16;30.60;74.70
19813;DHT22;10066;48.108;11.448;2023-08-20T10:13:43;30.70;74.70
19813;DHT22;10066;48.108;11.448;2023-08-20T10:16:12;30.70;75.30
19813;DHT22;10066;48.108;11.448;2023-08-20T10:18:41;30.70;75.00
19813;DHT22;10066;48.108;11.448;2023-08-20T10:21:09;30.70;74.80
19813;DHT22;10066;48.108;11.448;2023-08-20T10:23:40;30.70;75.40
19813;DHT22;10066;48.108;11.448;2023-08-20T10:26:08;30.60;74.20
19813;DHT22;10066;48.108;11.448;2023-08-20T10:28:36;30.60;74.00
19813;DHT22;10066;48.108;11.448;2023-08-20T10:31:04;30.50;74.80
19813;DHT22;10066;48.108;11.448;2023-08-20T10:33:33;30.50;73.20
19813;DHT22;10066;48.108;11.448;2023-08-20T10:36:09;30.50;73.50
19813;DHT22;10066;48.108;11.448;2023-08-20T10:38:37;30.50;73.90
19813;DHT22;10066;48.108;11.448;2023-08-20T10:41:08;30.50;72.90
19813;DHT22;10066;48.108;11.448;2023-08-20T10:43:37;30.50;71.90
19813;DHT22;10066;48.108;11.448;2023-08-20T10:46:08;30.50;72.30
19813;DHT22;10066;48.108;11.448;2023-08-20T10:48:37;30.50;72.90
19813;DHT22;10066;48.108;11.448;2023-08-20T10:51:13;30.50;70.30
19813;DHT22;10066;48.108;11.448;2023-08-20T10:53:41;30.50;70.10
19813;DHT22;10066;48.108;11.448;2023-08-20T10:56:10;30.50;71.30
19813;DHT22;10066;48.108;11.448;2023-08-20T10:58:40;30.60;71.10
19813;DHT22;10066;48.108;11.448;2023-08-20T11:01:22;30.70;72.00
19813;DHT22;10066;48.108;11.448;2023-08-20T11:03:50;30.70;71.10
19813;DHT22;10066;48.108;11.448;2023-08-20T11:06:18;30.70;70.60
19813;DHT22;10066;48.108;11.448;2023-08-20T11:08:46;30.70;69.70
19813;DHT22;10066;48.108;11.448;2023-08-20T11:11:13;30.70;69.40
19813;DHT22;10066;48.108;11.448;2023-08-20T11:13:40;30.80;71.00
19813;DHT22;10066;48.108;11.448;2023-08-20T11:16:08;30.80;69.40
19813;DHT22;10066;48.108;11.448;2023-08-20T11:18:36;30.80;69.00
19813;DHT22;10066;48.108;11.448;2023-08-20T11:21:03;30.90;68.60
19813;DHT22;10066;48.108;11.448;2023-08-20T11:23:32;30.80;68.00
19813;DHT22;10066;48.108;11.448;2023-08-20T11:25:59;30.80;67.40
19813;DHT22;10066;48.108;11.448;2023-08-20T11:28:27;30.80;67.60
19813;DHT22;10066;48.108;11.448;2023-08-20T11:30:54;30.80;68.20
19813;DHT22;10066;48.108;11.448;2023-08-20T11:33:22;30.80;68.20
19813;DHT22;10066;48.108;11.448;2023-08-20T11:35:50;30.90;68.10
19813;DHT22;10066;48.108;11.448;2023-08-20T11:38:18;30.90;67.40
19813;DHT22;10066;48.108;11.448;2023-08-20T11:40:47;31.00;67.70
19813;DHT22;10066;48.108;11.448;2023-08-20T11:43:14;31.00;67.40
19813;DHT22;10066;48.108;11.448;2023-08-20T11:45:48;31.00;65.70
19813;DHT22;10066;48.108;11.448;2023-08-20T11:48:15;31.00;66.10
19813;DHT22;10066;48.108;11.448;2023-08-20T11:50:42;31.00;66.10
19813;DHT22;10066;48.108;11.448;2023-08-20T11:53:09;31.10;67.00
19813;DHT22;10066;48.108;11.448;2023-08-20T11:55:37;31.20;67.00
19813;DHT22;10066;48.108;11.448;2023-08-20T11:58:09;31.30;67.60
19813;DHT22;10066;48.108;11.448;2023-08-20T12:00:36;31.40;68.20
19813;DHT22;10066;48.108;11.448;2023-08-20T12:03:04;31.40;66.70
19813;DHT22;10066;48.108;11.448;2023-08-20T12:05:31;31.40;67.90
19813;DHT22;10066;48.108;11.448;2023-08-20T12:07:59;31.50;67.80
19813;DHT22;10066;48.108;11.448;2023-08-20T12:10:29;31.40;66.70
19813;DHT22;10066;48.108;11.448;2023-08-20T12:12:57;31.50;67.60
19813;DHT22;10066;48.108;11.448;2023-08-20T12:15:25;31.50;67.10
19813;DHT22;10066;48.108;11.448;2023-08-20T12:17:56;31.50;68.20
19813;DHT22;10066;48.108;11.448;2023-08-20T12:20:26;31.60;66.30
19813;DHT22;10066;48.108;11.448;2023-08-20T12:22:53;31.60;67.70
19813;DHT22;10066;48.108;11.448;2023-08-20T12:25:20;31.70;66.50
19813;DHT22;10066;48.108;11.448;2023-08-20T12:27:47;31.70;65.90
19813;DHT22;10066;48.108;11.448;2023-08-20T12:30:14;31.70;65.60
19813;DHT22;10066;48.108;11.448;2023-08-20T12:32:42;31.70;65.00
19813;DHT22;10066;48.108;11.448;2023-08-20T12:35:09;31.70;65.90
19813;DHT22;10066;48.108;11.448;2023-08-20T12:37:36;31.60;64.00
19813;DHT22;10066;48.108;11.448;2023-08-20T12:40:04;31.60;64.70
19813;DHT22;10066;48.108;11.448;2023-08-20T12:42:36;31.60;64.30
19813;DHT22;10066;48.108;11.448;2023-08-20T12:45:06;31.60;64.60
19813;DHT22;10066;48.108;11.448;2023-08-20T12:47:33;31.60;63.80
19813;DHT22;10066;48.108;11.448;2023-08-20T12:50:01;31.70;65.50
19813;DHT22;10066;48.108;11.448;2023-08-20T12:52:30;31.80;64.00
19813;DHT22;10066;48.108;11.448;2023-08-20T12:54:59;31.80;63.20
19813;DHT22;10066;48.108;11.448;2023-08-20T12:57:25;31.80;63.20
19813;DHT22;10066;48.108;11.448;2023-08-20T12:59:52;31.70;63.50
19813;DHT22;10066;48.108;11.448;2023-08-20T13:02:19;31.70;63.80
19813;DHT22;10066;48.108;11.448;2023-08-20T13:04:47;31.80;64.40
19813;DHT22;10066;48.108;11.448;2023-08-20T13:07:17;31.70;63.40
19813;DHT22;10066;48.108;11.448;2023-08-20T13:09:45;31.80;64.00
19813;DHT22;10066;48.108;11.448;2023-08-20T13:12:12;31.80;64.90
19813;DHT22;10066;48.108;11.448;2023-08-20T13:14:40;31.80;65.40
19813;DHT22;10066;48.108;11.448;2023-08-20T13:17:08;31.90;65.20
19813;DHT22;10066;48.108;11.448;2023-08-20T13:19:35;31.90;64.60
19813;DHT22;10066;48.108;11.448;2023-08-20T13:22:02;31.90;65.10
19813;DHT22;10066;48.108;11.448;2023-08-20T13:24:31;31.90;64.80
19813;DHT22;10066;48.108;11.448;2023-08-20T13:26:57;31.90;64.60
19813;DHT22;10066;48.108;11.448;2023-08-20T13:29:24;32.00;63.40
19813;DHT22;10066;48.108;11.448;2023-08-20T13:31:51;32.00;63.50
19813;DHT22;10066;48.108;11.448;2023-08-20T13:34:18;32.00;62.10
19813;DHT22;10066;48.108;11.448;2023-08-20T13:36:45;32.00;63.50
19813;DHT22;10066;48.108;11.448;2023-08-20T13:39:13;31.90;64.40
19813;DHT22;10066;48.108;11.448;2023-08-20T13:41:41;32.00;64.00
19813;DHT22;10066;48.108;11.448;2023-08-20T13:44:08;32.10;64.20
19813;DHT22;10066;48.108;11.448;2023-08-20T13:46:35;32.10;64.70
19813;DHT22;10066;48.108;11.448;2023-08-20T13:49:03;32.00;65.30
19813;DHT22;10066;48.108;11.448;2023-08-20T13:51:30;32.00;65.50
19813;DHT22;10066;48.108;11.448;2023-08-20T13:53:57;32.10;65.90
19813;DHT22;10066;48.108;11.448;2023-08-20T13:56:24;32.10;64.90
19813;DHT22;10066;48.108;11.448;2023-08-20T13:58:53;32.10;63.80
19813;DHT22;10066;48.108;11.448;2023-08-20T14:01:20;32.10;64.90
19813;DHT22;10066;48.108;11.448;2023-08-20T14:03:47;32.00;64.00
19813;DHT22;10066;48.108;11.448;2023-08-20T14:06:15;32.10;64.20
19813;DHT22;10066;48.108;11.448;2023-08-20T14:08:43;32.10;64.30
19813;DHT22;10066;48.108;11.448;2023-08-20T14:11:10;32.10;64.20
19813;DHT22;10066;48.108;11.448;2023-08-20T14:13:37;32.10;62.60
19813;DHT22;10066;48.108;11.448;2023-08-20T14:16:05;32.10;62.80
19813;DHT22;10066;48.108;11.448;2023-08-20T14:18:32;32.10;63.40
19813;DHT22;10066;48.108;11.448;2023-08-20T14:20:59;32.10;63.30
19813;DHT22;10066;48.108;11.448;2023-08-20T14:23:26;32.10;63.10
19813;DHT22;10066;48.108;11.448;2023-08-20T14:25:55;32.10;64.40
19813;DHT22;10066;48.108;11.448;2023-08-20T14:28:22;32.10;63.80
19813;DHT22;10066;48.108;11.448;2023-08-20T14:30:50;32.10;63.90
19813;DHT22;10066;48.108;11.448;2023-08-20T14:33:20;32.10;63.70
19813;DHT22;10066;48.108;11.448;2023-08-20T14:35:48;32.10;64.60
19813;DHT22;10066;48.108;11.448;2023-08-20T14:38:14;32.10;63.70
19813;DHT22;10066;48.108;11.448;2023-08-20T14:40:41;32.10;63.10
19813;DHT22;10066;48.108;11.448;2023-08-20T14:43:08;32.10;63.10
19813;DHT22;10066;48.108;11.448;2023-08-20T14:45:35;32.10;63.50
19813;DHT22;10066;48.108;11.448;2023-08-20T14:48:03;32.10;63.60
19813;DHT22;10066;48.108;11.448;2023-08-20T14:50:31;32.00;64.50
19813;DHT22;10066;48.108;11.448;2023-08-20T14:52:58;32.00;63.70
19813;DHT22;10066;48.108;11.448;2023-08-20T14:55:25;31.90;64.20
19813;DHT22;10066;48.108;11.448;2023-08-20T14:57:52;31.90;64.50
19813;DHT22;10066;48.108;11.448;2023-08-20T15:00:19;31.90;63.60
19813;DHT22;10066;48.108;11.448;2023-08-20T15:02:48;31.90;63.30
19813;DHT22;10066;48.108;11.448;2023-08-20T15:05:15;31.90;62.80
19813;DHT22;10066;48.108;11.448;2023-08-20T15:07:44;31.90;62.70
19813;DHT22;10066;48.108;11.448;2023-08-20T15:10:11;31.90;61.80
19813;DHT22;10066;48.108;11.448;2023-08-20T15:12:39;31.90;61.70
19813;DHT22;10066;48.108;11.448;2023-08-20T15:15:06;31.80;62.00
19813;DHT22;10066;48.108;11.448;2023-08-20T15:17:34;31.80;62.20
19813;DHT22;10066;48.108;11.448;2023-08-20T15:20:02;31.80;62.50
19813;DHT22;10066;48.108;11.448;2023-08-20T15:22:30;31.80;61.80
19813;DHT22;10066;48.108;11.448;2023-08-20T15:24:58;31.80;61.40